Time;durP1;ratioP1;P1;durP2;ratioP2;P2;SDS_P1;SDS_P2;PMS_P1;PMS_P2;Temp;Humidity;BMP_temperature;BMP_pressure;BME280_temperature;BME280_humidity;BME280_pressure;Samples;Min_cycle;Max_cycle;Signal;HPM_P1;HPM_P2
2024/02/21 00:02:06;;;;;;;5.30;2.50;;;8.20;99.90;8.10;101175.00;;;;4928356;28;117206;-70
2024/02/21 00:04:32;;;;;;;3.03;1.73;;;8.20;99.90;8.10;101168.00;;;;4929245;28;118315;-70
2024/02/21 00:06:57;;;;;;;5.27;2.30;;;8.20;99.90;8.10;101166.00;;;;4931818;28;110725;-71
2024/02/21 00:09:23;;;;;;;9.00;2.20;;;8.20;99.90;8.10;101157.00;;;;4936069;28;110288;-72
2024/02/21 00:11:48;;;;;;;6.13;2.03;;;8.20;99.90;8.10;101164.00;;;;4928923;28;118070;-72
2024/02/21 00:14:14;;;;;;;4.80;2.07;;;8.30;99.90;8.10;101166.00;;;;4933867;28;116697;-72
2024/02/21 00:16:40;;;;;;;14.00;2.47;;;8.20;99.90;8.10;101154.00;;;;4932332;28;110098;-71
2024/02/21 00:19:05;;;;;;;5.87;2.23;;;8.20;99.90;8.10;101156.00;;;;4927398;28;109297;-71
2024/02/21 00:21:31;;;;;;;4.33;1.33;;;8.20;99.90;8.10;101149.00;;;;4933336;28;117726;-70
2024/02/21 00:23:57;;;;;;;3.80;1.90;;;8.20;99.90;8.10;101144.00;;;;4930573;28;115191;-71
2024/02/21 00:26:22;;;;;;;2.70;1.67;;;8.20;99.90;8.10;101153.00;;;;4935837;28;110428;-71
2024/02/21 00:28:48;;;;;;;3.07;1.80;;;8.20;99.90;8.10;101135.00;;;;4935807;28;100955;-73
2024/02/21 00:31:14;;;;;;;3.80;2.30;;;8.30;99.90;8.10;101140.00;;;;4939174;28;118939;-70
2024/02/21 00:33:39;;;;;;;3.90;1.57;;;8.20;99.90;8.10;101140.00;;;;4936611;28;116952;-70
2024/02/21 00:36:05;;;;;;;6.07;2.63;;;8.30;99.90;8.10;101125.00;;;;4935464;28;109397;-71
2024/02/21 00:38:31;;;;;;;3.70;1.60;;;8.30;99.90;8.10;101125.00;;;;4937750;28;88385;-71
2024/02/21 00:40:56;;;;;;;4.20;1.70;;;8.30;99.90;8.10;101127.00;;;;4937487;28;88198;-71
2024/02/21 00:43:23;;;;;;;5.70;1.73;;;8.30;99.90;8.10;101129.00;;;;4932464;28;88099;-74
2024/02/21 00:45:50;;;;;;;6.00;2.30;;;8.30;99.90;8.10;101123.00;;;;4938038;28;87953;-72
2024/02/21 00:48:15;;;;;;;4.93;2.40;;;8.20;99.90;8.10;101120.00;;;;4934783;28;89069;-72
2024/02/21 00:50:41;;;;;;;10.23;2.33;;;8.20;99.90;8.10;101124.00;;;;4933703;28;116652;-73
2024/02/21 00:53:07;;;;;;;4.57;2.07;;;8.30;99.90;8.10;101111.00;;;;4935322;28;87867;-72
2024/02/21 00:55:32;;;;;;;4.23;2.20;;;8.30;99.90;8.10;101117.00;;;;4932818;28;108739;-73
2024/02/21 00:57:58;;;;;;;2.80;1.53;;;8.20;99.90;8.10;101106.00;;;;4915686;28;108622;-71
2024/02/21 01:00:24;;;;;;;5.17;2.37;;;8.20;99.90;8.10;101108.00;;;;4934445;28;88967;-73
2024/02/21 01:02:49;;;;;;;2.90;1.87;;;8.30;99.90;8.10;101095.00;;;;4934854;28;117002;-74
2024/02/21 01:05:15;;;;;;;2.40;1.80;;;8.20;99.90;8.00;101095.00;;;;4930565;28;107557;-72
2024/02/21 01:07:40;;;;;;;2.40;1.60;;;8.10;99.90;8.00;101096.00;;;;4931434;28;87801;-73
2024/02/21 01:10:07;;;;;;;5.13;1.83;;;8.20;99.90;8.00;101103.00;;;;4946848;28;90177;-74
2024/02/21 01:12:33;;;;;;;5.40;2.00;;;8.10;99.90;8.00;101096.00;;;;4932293;28;88876;-72
2024/02/21 01:14:58;;;;;;;3.47;1.80;;;8.10;99.90;8.00;101086.00;;;;4931445;28;111371;-72
2024/02/21 01:17:24;;;;;;;1.93;1.47;;;8.20;99.90;8.00;101091.00;;;;4931157;28;88260;-72
2024/02/21 01:19:50;;;;;;;3.90;2.37;;;8.10;99.90;7.90;101094.00;;;;4931731;28;117135;-73
2024/02/21 01:22:16;;;;;;;6.00;2.40;;;8.10;99.90;7.90;101093.00;;;;4928085;28;116731;-73
2024/02/21 01:24:42;;;;;;;3.23;2.07;;;8.10;99.90;7.90;101080.00;;;;4931682;28;87543;-73
2024/02/21 01:27:07;;;;;;;6.33;1.97;;;8.00;99.90;7.90;101078.00;;;;4929917;28;87934;-71
2024/02/21 01:29:33;;;;;;;3.70;1.97;;;8.10;99.90;7.90;101070.00;;;;4936233;28;116225;-71
2024/02/21 01:31:59;;;;;;;2.93;1.73;;;8.00;99.90;7.90;101069.00;;;;4931015;28;116670;-71
2024/02/21 01:34:24;;;;;;;8.00;1.70;;;8.00;99.90;7.90;101074.00;;;;4929425;28;87928;-72
2024/02/21 01:36:50;;;;;;;7.40;2.50;;;8.00;99.90;7.90;101062.00;;;;4930964;28;107758;-74
2024/02/21 01:39:16;;;;;;;3.93;2.07;;;8.00;99.90;7.90;101063.00;;;;4930495;28;107774;-72
2024/02/21 01:41:41;;;;;;;4.20;1.83;;;8.00;99.90;7.90;101060.00;;;;4936902;28;115580;-73
2024/02/21 01:44:07;;;;;;;5.03;1.93;;;8.00;99.90;7.90;101054.00;;;;4933059;28;108797;-71
2024/02/21 01:46:33;;;;;;;3.43;1.63;;;8.00;99.90;7.90;101051.00;;;;4936266;28;88184;-72
2024/02/21 01:49:00;;;;;;;2.80;1.87;;;8.00;99.90;7.90;101049.00;;;;4931298;28;108598;-72
2024/02/21 01:51:25;;;;;;;6.03;2.27;;;8.00;99.90;7.90;101053.00;;;;4932861;28;118601;-70
2024/02/21 01:53:58;;;;;;;2.63;1.73;;;8.00;99.90;7.90;101042.00;;;;4932072;28;108818;-69
2024/02/21 01:56:24;;;;;;;2.03;1.83;;;8.00;99.90;7.90;101037.00;;;;4936104;28;108668;-72
2024/02/21 01:58:51;;;;;;;4.40;2.00;;;8.00;99.90;7.90;101030.00;;;;4934172;28;116735;-71
2024/02/21 02:01:17;;;;;;;2.43;1.80;;;8.00;99.90;7.90;101033.00;;;;4929551;28;118636;-72
2024/02/21 02:03:45;;;;;;;2.40;1.40;;;8.00;99.90;7.90;101032.00;;;;4931412;28;87951;-73
2024/02/21 02:06:10;;;;;;;3.23;1.70;;;8.00;99.90;7.90;101030.00;;;;4947695;28;87884;-70
2024/02/21 02:08:37;;;;;;;15.20;2.27;;;8.00;99.90;7.90;101034.00;;;;4929152;28;119355;-70
2024/02/21 02:11:03;;;;;;;11.07;3.27;;;8.00;99.90;7.90;101026.00;;;;4932440;28;116896;-71
2024/02/21 02:13:28;;;;;;;2.60;1.73;;;8.00;99.90;7.90;101016.00;;;;4935566;28;87697;-71
2024/02/21 02:15:55;;;;;;;2.07;1.40;;;7.90;99.90;7.90;101021.00;;;;4938057;28;106520;-70
2024/02/21 02:18:20;;;;;;;5.40;2.23;;;8.00;99.90;7.90;101017.00;;;;4928154;28;87175;-69
2024/02/21 02:20:47;;;;;;;8.53;2.13;;;8.00;99.90;7.90;101025.00;;;;4929930;28;109202;-69
2024/02/21 02:23:31;;;;;;;3.37;1.73;;;8.10;99.90;7.90;101016.00;;;;4932612;28;88096;-73
2024/02/21 02:25:58;;;;;;;2.87;1.80;;;8.10;99.90;8.00;101025.00;;;;4931386;28;88881;-70
2024/02/21 02:28:24;;;;;;;2.37;1.97;;;8.10;99.90;8.00;101016.00;;;;4931660;28;94794;-69
2024/02/21 02:30:50;;;;;;;5.10;1.87;;;8.10;99.90;8.00;101013.00;;;;4931294;28;88462;-69
2024/02/21 02:33:17;;;;;;;2.83;1.40;;;7.90;99.90;8.00;101010.00;;;;4934850;28;101736;-69
2024/02/21 02:35:43;;;;;;;3.67;1.70;;;8.10;99.90;8.00;101008.00;;;;4928955;28;87803;-73
2024/02/21 02:38:09;;;;;;;5.00;1.97;;;8.10;99.90;8.00;101006.00;;;;4930574;28;116877;-71
2024/02/21 02:40:35;;;;;;;4.37;2.63;;;8.10;99.90;8.00;101002.00;;;;4932458;28;88180;-71
2024/02/21 02:43:01;;;;;;;3.50;2.07;;;8.10;99.90;8.00;101004.00;;;;4932837;28;110982;-72
2024/02/21 02:45:27;;;;;;;3.17;1.80;;;8.10;99.90;8.00;100998.00;;;;4937502;28;87705;-72
2024/02/21 02:47:54;;;;;;;3.57;2.10;;;8.10;99.90;8.00;100993.00;;;;4928586;28;88704;-71
2024/02/21 02:50:20;;;;;;;2.70;1.47;;;8.10;99.90;8.00;100993.00;;;;4928284;28;88728;-72
2024/02/21 02:52:46;;;;;;;6.63;1.47;;;8.10;99.90;8.00;100990.00;;;;4933084;28;109332;-72
2024/02/21 02:55:11;;;;;;;4.33;2.03;;;8.10;99.90;8.00;100985.00;;;;4931255;28;94503;-75
2024/02/21 02:57:37;;;;;;;4.87;2.17;;;8.10;99.90;8.00;100991.00;;;;4917105;28;116900;-69
2024/02/21 03:00:06;;;;;;;2.40;1.57;;;8.10;99.90;8.00;100985.00;;;;4931247;28;116981;-73
2024/02/21 03:02:32;;;;;;;4.93;2.47;;;7.50;99.90;8.00;100988.00;;;;4936848;28;87829;-71
2024/02/21 03:04:58;;;;;;;5.37;1.33;;;8.10;99.90;8.00;100989.00;;;;4934963;28;109905;-72
2024/02/21 03:07:25;;;;;;;6.53;1.80;;;8.10;99.90;8.00;100982.00;;;;4932298;28;116497;-72
2024/02/21 03:09:51;;;;;;;4.27;1.77;;;8.10;99.90;8.00;100983.00;;;;4953975;28;99473;-73
2024/02/21 03:12:24;;;;;;;3.17;1.70;;;8.20;99.90;8.00;100969.00;;;;4931185;28;112042;-71
2024/02/21 03:14:50;;;;;;;5.43;2.30;;;8.10;99.90;8.00;100972.00;;;;4925183;28;91613;-72
2024/02/21 03:17:16;;;;;;;3.67;2.30;;;8.10;99.90;8.00;100973.00;;;;4925291;28;117784;-71
2024/02/21 03:19:42;;;;;;;5.30;2.10;;;8.10;99.90;7.90;100973.00;;;;4931623;28;116830;-71
2024/02/21 03:22:07;;;;;;;2.47;1.83;;;8.00;99.90;7.90;100972.00;;;;4925998;28;110796;-71
2024/02/21 03:24:33;;;;;;;2.33;1.67;;;8.00;99.90;7.90;100973.00;;;;4928588;28;108739;-71
2024/02/21 03:26:59;;;;;;;1.73;1.57;;;8.00;99.90;7.90;100960.00;;;;4928940;28;92253;-73
2024/02/21 03:29:25;;;;;;;2.93;1.77;;;8.00;99.90;7.90;100965.00;;;;4926021;28;117007;-71
2024/02/21 03:31:51;;;;;;;3.80;1.67;;;8.00;99.90;7.90;100969.00;;;;4927091;28;87066;-71
2024/02/21 03:34:17;;;;;;;2.50;1.83;;;8.00;99.90;7.90;100966.00;;;;4928434;28;107721;-71
2024/02/21 03:36:42;;;;;;;4.20;1.90;;;8.00;99.90;7.90;100954.00;;;;4930289;28;116770;-73
2024/02/21 03:39:09;;;;;;;8.50;1.67;;;8.00;99.90;7.90;100950.00;;;;4924898;28;115653;-73
2024/02/21 03:41:35;;;;;;;12.00;1.97;;;7.70;99.90;7.90;100956.00;;;;4927439;28;87929;-72
2024/02/21 03:44:01;;;;;;;4.53;1.63;;;8.00;99.90;7.90;100953.00;;;;4929409;28;108256;-74
2024/02/21 03:46:28;;;;;;;2.63;1.37;;;8.00;99.90;7.90;100941.00;;;;4932126;28;101945;-72
2024/02/21 03:48:53;;;;;;;5.87;1.70;;;8.10;99.90;7.90;100935.00;;;;4930359;28;87895;-72
2024/02/21 03:51:19;;;;;;;7.43;1.97;;;8.10;99.90;7.90;100932.00;;;;4931192;28;108510;-70
2024/02/21 03:53:45;;;;;;;4.83;1.87;;;8.00;99.90;7.90;100931.00;;;;4930236;28;87838;-71
2024/02/21 03:56:10;;;;;;;2.27;1.60;;;8.00;99.90;7.80;100950.00;;;;4926739;28;117664;-73
2024/02/21 03:58:36;;;;;;;3.50;2.30;;;8.00;99.90;7.80;100947.00;;;;4929641;28;116317;-71
2024/02/21 04:01:03;;;;;;;4.97;1.80;;;7.90;99.90;7.80;100951.00;;;;4926705;28;110598;-72
2024/02/21 04:03:29;;;;;;;2.13;1.60;;;7.90;99.90;7.80;100940.00;;;;4929470;28;89031;-73
2024/02/21 04:05:54;;;;;;;2.80;1.70;;;7.90;99.90;7.80;100947.00;;;;4918659;28;90752;-73
2024/02/21 04:08:21;;;;;;;4.63;2.40;;;8.00;99.90;7.80;100946.00;;;;4927129;28;116614;-71
2024/02/21 04:10:47;;;;;;;1.63;1.37;;;7.90;99.90;7.80;100936.00;;;;4934056;28;87822;-74
2024/02/21 04:13:13;;;;;;;3.03;1.70;;;7.90;99.90;7.80;100941.00;;;;4950391;28;108803;-71
2024/02/21 04:15:38;;;;;;;5.60;1.77;;;7.90;99.90;7.80;100939.00;;;;4934090;28;116702;-74
2024/02/21 04:18:04;;;;;;;3.30;1.90;;;7.90;99.90;7.80;100952.00;;;;4930557;28;116389;-71
2024/02/21 04:20:30;;;;;;;7.20;1.63;;;7.90;99.90;7.80;100953.00;;;;4929193;28;99554;-71
2024/02/21 04:22:56;;;;;;;5.50;1.87;;;7.90;99.90;7.80;100948.00;;;;4914746;28;88515;-73
2024/02/21 04:25:22;;;;;;;3.90;1.90;;;7.90;99.90;7.80;100944.00;;;;4929146;28;88904;-72
2024/02/21 04:27:48;;;;;;;5.70;1.90;;;8.00;99.90;7.80;100951.00;;;;4929217;28;88940;-71
2024/02/21 04:30:14;;;;;;;5.07;2.80;;;7.90;99.90;7.80;100945.00;;;;4930808;28;110203;-72
2024/02/21 04:32:40;;;;;;;2.87;1.83;;;7.90;99.90;7.80;100941.00;;;;4931425;28;88304;-71
2024/02/21 04:35:07;;;;;;;9.33;2.57;;;7.90;99.90;7.80;100936.00;;;;4935854;28;88071;-71
2024/02/21 04:37:32;;;;;;;3.97;2.57;;;7.90;99.90;7.80;100952.00;;;;4945984;28;88396;-72
2024/02/21 04:39:58;;;;;;;1.80;1.70;;;7.90;99.90;7.80;100940.00;;;;4943648;28;110367;-71
2024/02/21 04:42:23;;;;;;;3.27;2.13;;;7.90;99.90;7.80;100926.00;;;;4935047;28;107897;-73
2024/02/21 04:44:49;;;;;;;3.37;1.30;;;7.90;99.90;7.80;100930.00;;;;4932130;28;118330;-71
2024/02/21 04:47:15;;;;;;;4.03;2.00;;;7.90;99.90;7.80;100927.00;;;;4926649;28;117699;-71
2024/02/21 04:49:41;;;;;;;2.63;1.77;;;7.90;99.90;7.80;100922.00;;;;4930453;28;110211;-71
2024/02/21 04:52:06;;;;;;;5.10;2.10;;;7.90;99.90;7.80;100920.00;;;;4932857;28;88918;-71
2024/02/21 04:54:32;;;;;;;1.63;1.13;;;7.90;99.90;7.80;100929.00;;;;4930097;28;117744;-71
2024/02/21 04:56:57;;;;;;;2.70;1.80;;;7.90;99.90;7.80;100917.00;;;;4926696;28;117142;-72
2024/02/21 04:59:23;;;;;;;5.87;2.53;;;8.00;99.90;7.80;100920.00;;;;4944661;28;110013;-71
2024/02/21 05:01:49;;;;;;;4.53;2.30;;;7.90;99.90;7.80;100927.00;;;;4925987;27;103438;-71
2024/02/21 05:04:14;;;;;;;4.47;2.43;;;8.00;99.90;7.90;100913.00;;;;4931933;28;116844;-72
2024/02/21 05:06:41;;;;;;;4.53;2.70;;;8.00;99.90;7.90;100913.00;;;;4930166;28;117144;-73
2024/02/21 05:09:08;;;;;;;3.07;2.03;;;8.10;99.90;7.90;100908.00;;;;4936177;28;87080;-73
2024/02/21 05:11:35;;;;;;;3.10;1.67;;;8.10;99.90;8.00;100908.00;;;;4938011;28;88039;-72
2024/02/21 05:14:01;;;;;;;5.30;2.30;;;8.10;99.90;8.00;100915.00;;;;4935862;28;107094;-72
2024/02/21 05:16:26;;;;;;;3.80;1.90;;;8.00;99.90;8.00;100898.00;;;;4930713;28;117972;-72
2024/02/21 05:18:52;;;;;;;4.57;1.50;;;8.10;99.90;8.00;100903.00;;;;4930437;28;111546;-72
2024/02/21 05:21:19;;;;;;;4.77;2.43;;;8.10;99.90;8.00;100902.00;;;;4933337;28;87917;-72
2024/02/21 05:23:44;;;;;;;2.37;1.63;;;8.10;99.90;8.00;100898.00;;;;4929250;28;89195;-72
2024/02/21 05:26:10;;;;;;;2.53;1.87;;;8.10;99.90;8.00;100899.00;;;;4927858;28;117602;-71
2024/02/21 05:28:36;;;;;;;4.17;2.30;;;8.10;99.90;8.00;100897.00;;;;4927007;28;109140;-71
2024/02/21 05:31:01;;;;;;;4.83;1.93;;;8.10;99.90;8.00;100890.00;;;;4929743;28;108745;-71
2024/02/21 05:33:27;;;;;;;3.87;1.97;;;8.20;99.90;8.00;100888.00;;;;4926947;28;116430;-71
2024/02/21 05:35:54;;;;;;;4.83;2.57;;;8.10;99.90;8.00;100870.00;;;;4928316;28;88254;-71
2024/02/21 05:38:19;;;;;;;4.03;2.37;;;8.20;99.90;8.00;100868.00;;;;4929003;28;108733;-71
2024/02/21 05:40:45;;;;;;;3.37;1.87;;;8.10;99.90;8.00;100862.00;;;;4930021;28;108900;-71
2024/02/21 05:43:11;;;;;;;3.90;1.87;;;8.10;99.90;8.00;100878.00;;;;4926725;28;89055;-70
2024/02/21 05:45:37;;;;;;;6.20;2.97;;;8.10;99.90;8.00;100864.00;;;;4926989;28;118352;-71
2024/02/21 05:48:04;;;;;;;6.40;2.43;;;8.10;99.90;8.00;100863.00;;;;4929717;28;88005;-72
2024/02/21 05:50:30;;;;;;;3.40;2.33;;;8.10;99.90;8.00;100854.00;;;;4927141;28;99791;-71
2024/02/21 05:52:56;;;;;;;6.97;2.77;;;8.10;99.90;8.00;100855.00;;;;4928821;28;101673;-72
2024/02/21 05:55:22;;;;;;;5.97;2.40;;;8.10;99.90;8.00;100858.00;;;;4928697;28;103679;-74
2024/02/21 05:57:54;;;;;;;3.10;2.00;;;8.10;99.90;8.00;100844.00;;;;4926375;28;87385;-71
2024/02/21 06:00:20;;;;;;;13.67;3.00;;;8.10;99.90;8.00;100838.00;;;;4928563;28;88820;-73
2024/02/21 06:02:46;;;;;;;3.23;1.90;;;8.10;99.90;8.00;100834.00;;;;4927021;28;103869;-72
2024/02/21 06:05:12;;;;;;;4.93;2.40;;;8.10;99.90;8.00;100828.00;;;;4929504;28;116574;-71
2024/02/21 06:07:39;;;;;;;2.43;1.80;;;8.10;99.90;8.00;100827.00;;;;4931696;28;88194;-71
2024/02/21 06:10:06;;;;;;;2.63;1.97;;;8.10;99.90;8.00;100827.00;;;;4931769;28;87793;-72
2024/02/21 06:12:32;;;;;;;3.53;2.60;;;8.10;99.90;8.00;100824.00;;;;4935741;28;102938;-72
2024/02/21 06:14:57;;;;;;;12.43;2.33;;;8.10;99.90;7.90;100823.00;;;;4928260;28;115863;-71
2024/02/21 06:17:23;;;;;;;4.00;2.03;;;8.10;99.90;8.00;100810.00;;;;4929367;28;109809;-73
2024/02/21 06:19:49;;;;;;;5.53;1.60;;;8.00;99.90;8.00;100821.00;;;;4933261;28;88000;-72
2024/02/21 06:22:14;;;;;;;4.17;2.07;;;8.00;99.90;8.00;100822.00;;;;4933266;28;117987;-71
2024/02/21 06:24:40;;;;;;;2.80;1.30;;;8.10;99.90;8.00;100816.00;;;;4932743;28;116571;-73
2024/02/21 06:27:06;;;;;;;3.20;2.20;;;8.10;99.90;8.00;100824.00;;;;4934765;28;88176;-73
2024/02/21 06:29:35;;;;;;;3.90;2.50;;;8.10;99.90;8.00;100821.00;;;;4934416;28;88653;-73
2024/02/21 06:32:01;;;;;;;10.47;1.93;;;8.10;99.90;8.00;100823.00;;;;4938468;28;117250;-72
2024/02/21 06:34:27;;;;;;;2.43;1.67;;;8.10;99.90;8.00;100821.00;;;;4931293;28;91278;-71
2024/02/21 06:36:52;;;;;;;5.70;2.30;;;8.10;99.90;8.00;100826.00;;;;4931350;28;107965;-71
2024/02/21 06:39:18;;;;;;;5.10;2.37;;;8.10;99.90;8.00;100822.00;;;;4931945;28;110596;-72
2024/02/21 06:41:44;;;;;;;4.53;2.43;;;8.20;99.90;8.00;100816.00;;;;4934220;28;116634;-73
2024/02/21 06:44:09;;;;;;;4.60;2.53;;;8.10;99.90;8.10;100819.00;;;;4934907;28;88561;-74
2024/02/21 06:46:35;;;;;;;3.57;1.83;;;8.20;99.90;8.10;100807.00;;;;4926175;28;110287;-74
2024/02/21 06:49:05;;;;;;;11.93;2.60;;;8.20;99.90;8.10;100828.00;;;;4931901;28;108193;-71
2024/02/21 06:51:31;;;;;;;6.50;2.23;;;8.20;99.90;8.10;100831.00;;;;4929092;28;88907;-71
2024/02/21 06:53:57;;;;;;;5.17;2.40;;;8.40;99.90;8.10;100831.00;;;;4931956;28;88976;-74
2024/02/21 06:56:28;;;;;;;5.87;1.77;;;8.20;99.90;8.10;100830.00;;;;4932498;28;109793;-72
2024/02/21 06:58:55;;;;;;;7.43;2.27;;;8.20;99.90;8.10;100829.00;;;;4931700;28;87786;-74
2024/02/21 07:01:21;;;;;;;7.10;2.43;;;8.20;99.90;8.10;100835.00;;;;4935176;28;88263;-72
2024/02/21 07:03:47;;;;;;;5.83;1.90;;;8.20;99.90;8.10;100836.00;;;;4929510;28;104531;-73
2024/02/21 07:06:13;;;;;;;2.83;2.07;;;8.20;99.90;8.10;100849.00;;;;4929457;28;109131;-73
2024/02/21 07:08:39;;;;;;;6.93;2.50;;;8.30;99.90;8.20;100854.00;;;;4929293;28;108211;-71
2024/02/21 07:11:05;;;;;;;6.33;2.33;;;8.30;99.90;8.20;100847.00;;;;4930274;28;87632;-73
2024/02/21 07:13:32;;;;;;;7.20;2.17;;;8.20;99.90;8.20;100847.00;;;;4927773;28;117009;-72
2024/02/21 07:15:57;;;;;;;8.97;2.53;;;8.30;99.90;8.30;100849.00;;;;4925429;28;101497;-71
2024/02/21 07:18:25;;;;;;;4.43;2.17;;;8.40;99.90;8.30;100848.00;;;;4927503;28;90619;-74
2024/02/21 07:20:51;;;;;;;3.17;1.40;;;8.40;99.90;8.30;100846.00;;;;4921392;28;90265;-73
2024/02/21 07:23:18;;;;;;;4.43;2.07;;;8.40;99.90;8.30;100848.00;;;;4931737;28;108937;-72
2024/02/21 07:25:43;;;;;;;5.90;2.50;;;8.40;99.90;8.40;100858.00;;;;4931846;28;90974;-74
2024/02/21 07:28:09;;;;;;;4.90;2.40;;;8.50;99.90;8.40;100859.00;;;;4934093;28;107478;-73
2024/02/21 07:30:35;;;;;;;5.90;2.30;;;8.50;99.90;8.40;100856.00;;;;4931212;28;116034;-73
2024/02/21 07:33:01;;;;;;;3.23;1.87;;;8.50;99.90;8.50;100857.00;;;;4915122;28;89225;-71
2024/02/21 07:35:26;;;;;;;6.03;1.93;;;8.60;99.90;8.50;100852.00;;;;4933923;28;109259;-71
2024/02/21 07:37:52;;;;;;;5.20;3.17;;;8.60;99.90;8.50;100861.00;;;;4931379;28;106629;-71
2024/02/21 07:40:18;;;;;;;3.70;2.07;;;8.60;99.90;8.60;100845.00;;;;4927487;28;115877;-73
2024/02/21 07:42:47;;;;;;;7.30;2.13;;;8.60;99.90;8.60;100857.00;;;;4930707;28;118935;-73
2024/02/21 07:45:13;;;;;;;3.33;2.33;;;8.70;99.90;8.60;100859.00;;;;4927292;28;87836;-71
2024/02/21 07:47:38;;;;;;;6.03;2.70;;;8.80;99.90;8.60;100850.00;;;;4930849;28;87725;-71
2024/02/21 07:50:05;;;;;;;1.63;1.53;;;8.70;99.90;8.60;100849.00;;;;4926771;28;116761;-72
2024/02/21 07:52:31;;;;;;;4.07;1.97;;;8.70;99.90;8.60;100849.00;;;;4942865;28;106357;-71
2024/02/21 07:54:56;;;;;;;2.80;1.90;;;8.70;99.90;8.60;100854.00;;;;4930449;28;98880;-71
2024/02/21 07:57:22;;;;;;;2.73;2.13;;;8.70;99.90;8.60;100851.00;;;;4931400;28;89886;-70
2024/02/21 07:59:48;;;;;;;8.27;2.37;;;8.70;99.90;8.60;100862.00;;;;4932945;28;87204;-70
2024/02/21 08:02:17;;;;;;;6.27;2.27;;;8.70;99.90;8.70;100845.00;;;;4931172;28;91523;-73
2024/02/21 08:04:43;;;;;;;3.87;2.10;;;8.70;99.90;8.70;100856.00;;;;4930648;28;110532;-70
2024/02/21 08:07:09;;;;;;;2.47;2.00;;;8.80;99.90;8.70;100853.00;;;;4915385;28;108587;-71
2024/02/21 08:09:37;;;;;;;4.13;2.10;;;8.80;99.90;8.70;100857.00;;;;4932352;28;88667;-71
2024/02/21 08:12:04;;;;;;;7.40;2.57;;;8.80;99.90;8.80;100862.00;;;;4931174;28;88011;-71
2024/02/21 08:14:30;;;;;;;5.10;2.53;;;8.90;99.90;8.80;100857.00;;;;4935074;28;100595;-70
2024/02/21 08:16:55;;;;;;;5.43;2.20;;;8.90;99.90;8.80;100858.00;;;;4929939;28;108832;-71
2024/02/21 08:19:24;;;;;;;3.07;2.30;;;8.80;99.90;8.80;100843.00;;;;4933667;28;117247;-72
2024/02/21 08:21:53;;;;;;;8.53;2.30;;;8.90;99.90;8.80;100834.00;;;;4939231;28;90008;-70
2024/02/21 08:24:19;;;;;;;3.97;2.37;;;8.80;99.90;8.80;100839.00;;;;4950873;28;110131;-70
2024/02/21 08:26:47;;;;;;;9.37;3.10;;;8.80;99.90;8.70;100837.00;;;;4932116;28;87777;-72
2024/02/21 08:29:13;;;;;;;4.20;2.67;;;8.90;99.90;8.70;100844.00;;;;4912931;28;117180;-72
2024/02/21 08:31:39;;;;;;;3.37;2.47;;;8.80;99.90;8.70;100836.00;;;;4927896;28;113151;-72
2024/02/21 08:34:04;;;;;;;5.20;2.50;;;8.80;99.90;8.70;100830.00;;;;4931960;28;112096;-70
2024/02/21 08:36:34;;;;;;;6.37;2.20;;;8.80;99.90;8.70;100818.00;;;;4930415;28;108832;-69
2024/02/21 08:39:03;;;;;;;10.10;3.27;;;8.80;99.90;8.70;100821.00;;;;4930897;28;105151;-70
2024/02/21 08:41:31;;;;;;;4.63;2.43;;;8.80;99.90;8.70;100815.00;;;;4937778;28;87785;-75
2024/02/21 08:43:57;;;;;;;2.17;2.00;;;8.80;99.90;8.80;100808.00;;;;4935814;28;87822;-70
2024/02/21 08:46:24;;;;;;;3.60;2.80;;;8.90;99.90;8.80;100813.00;;;;4911429;28;88157;-70
2024/02/21 08:48:54;;;;;;;4.17;2.67;;;8.90;99.90;8.80;100806.00;;;;4933260;28;88078;-70
2024/02/21 08:51:20;;;;;;;7.67;2.20;;;8.90;99.90;8.80;100807.00;;;;4947495;28;88210;-69
2024/02/21 08:53:46;;;;;;;3.67;1.63;;;8.90;99.90;8.80;100821.00;;;;4935148;28;88232;-70
2024/02/21 08:56:12;;;;;;;4.53;2.07;;;8.90;99.90;8.90;100811.00;;;;4929043;28;89236;-70
2024/02/21 08:58:39;;;;;;;3.43;2.00;;;8.90;99.90;8.90;100806.00;;;;4940911;28;88114;-72
2024/02/21 09:01:09;;;;;;;11.30;2.83;;;8.90;99.90;8.90;100808.00;;;;4933461;28;108956;-73
2024/02/21 09:03:39;;;;;;;3.57;2.20;;;9.00;99.90;8.90;100799.00;;;;4938906;28;88264;-75
2024/02/21 09:06:09;;;;;;;4.43;2.83;;;8.90;99.90;8.90;100801.00;;;;4932241;28;108148;-72
2024/02/21 09:08:35;;;;;;;5.37;2.30;;;9.00;99.90;8.90;100797.00;;;;4940590;28;104989;-74
2024/02/21 09:11:01;;;;;;;4.90;2.53;;;9.00;99.90;8.90;100801.00;;;;4935168;28;88115;-70
2024/02/21 09:13:27;;;;;;;1.83;1.37;;;9.30;99.90;9.00;100800.00;;;;4937471;28;87879;-72
2024/02/21 09:15:53;;;;;;;3.57;2.03;;;9.00;99.90;9.00;100794.00;;;;4931497;28;87823;-71
2024/02/21 09:18:19;;;;;;;4.57;2.10;;;9.10;99.90;9.10;100801.00;;;;4932853;28;88326;-70
2024/02/21 09:20:45;;;;;;;6.27;2.07;;;9.10;99.90;9.20;100817.00;;;;4929358;28;116416;-72
2024/02/21 09:23:11;;;;;;;3.17;2.57;;;9.20;99.90;9.30;100818.00;;;;4932592;28;87633;-72
2024/02/21 09:25:37;;;;;;;2.40;1.90;;;9.30;99.90;9.40;100821.00;;;;4937219;28;96484;-72
2024/02/21 09:28:04;;;;;;;9.07;2.33;;;9.40;99.90;9.50;100830.00;;;;4933615;28;118246;-71
2024/02/21 09:30:30;;;;;;;10.03;2.80;;;9.50;99.90;9.60;100824.00;;;;4932464;28;89070;-71
2024/02/21 09:32:58;;;;;;;4.10;2.67;;;9.60;99.90;9.70;100823.00;;;;4931307;28;87681;-72
2024/02/21 09:35:26;;;;;;;4.20;2.37;;;9.70;99.90;9.80;100830.00;;;;4932411;28;87810;-73
2024/02/21 09:37:52;;;;;;;5.20;2.27;;;9.70;99.90;9.90;100838.00;;;;4931150;28;88376;-71
2024/02/21 09:40:18;;;;;;;3.73;2.07;;;9.90;99.90;9.90;100827.00;;;;4932322;28;101671;-71
2024/02/21 09:42:46;;;;;;;5.03;2.80;;;10.00;99.90;9.90;100827.00;;;;4928548;28;109727;-71
2024/02/21 09:45:30;;;;;;;4.43;2.77;;;10.00;99.90;9.90;100834.00;;;;4932450;28;102504;-71
2024/02/21 09:48:31;;;;;;;3.00;2.50;;;10.00;99.90;9.90;100821.00;;;;4931989;28;117999;-72
2024/02/21 09:50:58;;;;;;;3.00;2.17;;;10.00;99.90;9.90;100830.00;;;;4940638;28;87983;-70
2024/02/21 09:53:25;;;;;;;5.80;2.73;;;10.00;99.90;9.90;100827.00;;;;4928255;28;111306;-71
2024/02/21 09:55:51;;;;;;;3.17;2.50;;;10.00;99.90;9.90;100819.00;;;;4929577;28;102294;-70
2024/02/21 09:58:17;;;;;;;2.30;1.83;;;10.00;99.90;9.90;100819.00;;;;4929029;28;117632;-72
2024/02/21 10:00:43;;;;;;;4.57;2.53;;;10.00;99.90;9.90;100817.00;;;;4924767;28;88729;-72
2024/02/21 10:03:08;;;;;;;4.50;2.30;;;10.00;99.90;9.90;100806.00;;;;4932255;28;87250;-70
2024/02/21 10:05:38;;;;;;;2.90;1.93;;;10.00;99.90;9.90;100812.00;;;;4929069;28;87824;-71
2024/02/21 10:08:04;;;;;;;6.03;2.63;;;10.00;99.90;9.90;100811.00;;;;4929676;28;88096;-73
2024/02/21 10:10:40;;;;;;;5.53;2.60;;;9.90;99.90;9.90;100818.00;;;;4926774;28;92311;-72
2024/02/21 10:13:06;;;;;;;2.70;2.13;;;10.00;99.90;9.90;100805.00;;;;4928007;28;104475;-74
2024/02/21 10:15:31;;;;;;;4.57;2.10;;;10.00;99.90;10.00;100802.00;;;;4935939;28;88072;-72
2024/02/21 10:18:03;;;;;;;3.50;1.80;;;10.00;99.90;10.10;100799.00;;;;4934559;28;88277;-70
2024/02/21 10:20:29;;;;;;;3.73;2.33;;;10.10;99.90;10.30;100803.00;;;;4929858;28;88231;-73
2024/02/21 10:23:08;;;;;;;4.57;2.13;;;10.30;99.90;10.30;100796.00;;;;4932173;28;88193;-72
2024/02/21 10:25:41;;;;;;;4.63;1.80;;;10.40;99.90;10.50;100802.00;;;;4933524;28;87966;-71
2024/02/21 10:28:07;;;;;;;4.67;2.60;;;10.50;99.90;10.70;100798.00;;;;4947213;28;87820;-71
2024/02/21 10:30:33;;;;;;;2.03;1.67;;;10.60;99.90;10.70;100792.00;;;;4929446;28;101101;-72
2024/02/21 10:32:58;;;;;;;6.97;2.30;;;10.70;99.90;10.80;100795.00;;;;4926016;28;111152;-72
2024/02/21 10:35:33;;;;;;;4.13;2.60;;;10.80;99.90;10.90;100794.00;;;;4931673;28;89036;-71
2024/02/21 10:37:59;;;;;;;3.70;1.93;;;10.90;99.90;11.00;100794.00;;;;4932508;28;103477;-70
2024/02/21 10:40:29;;;;;;;2.87;1.90;;;11.00;99.90;11.20;100784.00;;;;4928157;28;100836;-71
2024/02/21 10:43:00;;;;;;;3.57;2.83;;;11.20;99.90;11.30;100771.00;;;;4934727;28;88017;-74
2024/02/21 10:45:36;;;;;;;5.90;2.73;;;11.30;99.90;11.50;100764.00;;;;4947127;28;88315;-73
2024/02/21 10:48:13;;;;;;;7.00;2.80;;;11.40;99.90;11.60;100764.00;;;;4932325;28;107218;-72
2024/02/21 10:51:14;;;;;;;5.37;3.00;;;11.60;99.90;11.50;100765.00;;;;4945117;28;87945;-72
2024/02/21 10:54:08;;;;;;;3.07;2.03;;;11.60;99.90;11.40;100761.00;;;;4946022;28;90085;-73
2024/02/21 10:56:36;;;;;;;7.67;3.07;;;11.50;99.90;11.30;100759.00;;;;4947040;28;87795;-72